Аэропорт: Алматы. Алма-Ата

ICAO: UAAA

METAR:
2019-07-23 18:30:00
UAAA 231830Z 23003MPS 9999 FEW100 23/11 Q1008 R88/CLRD65 NOSIG
METAR:
2019-07-23 17:00:00
TAF UAAA 231700Z 2318/2418 16003G08MPS 9999 SCT050CB BKN100 TX34/2409Z TN20/2401Z TEMPO 2318/2324 22005MPS BECMG 2405/2406 27003G08MPS TEMPO 2406/2412 34005G12MPS PROB40 TEMPO 2406/2412 TS TEMPO 2412/2418 23005G10MPS